Time,TemperatureF,DewpointF,PressureIn,WindDirection,WindDirectionDegrees,WindSpeedMPH,WindSpeedGustMPH,Humidity,HourlyPrecipIn,Conditions,Clouds,dailyrainin,SoftwareType,DateUTC
2013-07-28 00:04:00,54.7,45.5,30.26,North,0,0.0,0.0,71,0.00,,---,0.00,VWS V14.01,2013-07-28 06:04:00,
2013-07-28 00:10:00,54.7,45.5,30.26,NNW,343,0.0,0.0,71,0.00,,---,0.00,VWS V14.01,2013-07-28 06:10:00,
2013-07-28 00:17:00,54.5,45.3,30.26,NNW,343,0.0,0.0,71,0.00,,---,0.00,VWS V14.01,2013-07-28 06:17:00,
2013-07-28 00:23:00,54.5,45.7,30.26,NNW,346,0.0,0.0,72,0.00,,---,0.00,VWS V14.01,2013-07-28 06:23:00,
2013-07-28 00:29:00,54.5,45.7,30.26,North,353,0.0,0.0,72,0.00,,---,0.00,VWS V14.01,2013-07-28 06:29:00,
2013-07-28 00:34:00,54.5,45.7,30.26,North,350,0.0,0.0,72,0.00,,---,0.00,VWS V14.01,2013-07-28 06:34:00,
2013-07-28 00:40:00,54.5,45.7,30.26,NNW,344,0.0,0.0,72,0.00,,---,0.00,VWS V14.01,2013-07-28 06:40:00,
2013-07-28 00:45:00,54.5,45.7,30.26,NNW,344,0.0,0.0,72,0.00,,---,0.00,VWS V14.01,2013-07-28 06:45:00,
2013-07-28 00:51:00,54.3,45.5,30.26,NNW,344,0.0,0.0,72,0.00,,---,0.00,VWS V14.01,2013-07-28 06:51:00,
2013-07-28 00:56:00,54.3,45.9,30.26,NNW,344,0.0,0.0,73,0.00,,---,0.00,VWS V14.01,2013-07-28 06:56:00,
2013-07-28 01:02:00,54.3,45.9,30.26,NNW,344,0.0,0.0,73,0.00,,---,0.00,VWS V14.01,2013-07-28 07:02:00,
2013-07-28 01:08:00,54.3,46.2,30.23,NNW,344,0.0,0.0,74,0.00,,---,0.00,VWS V14.01,2013-07-28 07:08:00,
2013-07-28 01:13:00,54.1,46.0,30.23,NNW,344,0.0,0.0,74,0.00,,---,0.00,VWS V14.01,2013-07-28 07:13:00,
2013-07-28 01:19:00,54.1,46.4,30.23,NNW,344,0.0,0.0,75,0.00,,---,0.00,VWS V14.01,2013-07-28 07:19:00,
2013-07-28 01:24:00,54.1,46.4,30.23,NNW,344,0.0,0.0,75,0.00,,---,0.00,VWS V14.01,2013-07-28 07:24:00,
2013-07-28 01:30:00,54.1,46.4,30.23,NNW,344,0.0,0.0,75,0.00,,---,0.00,VWS V14.01,2013-07-28 07:30:00,
2013-07-28 01:35:00,54.1,46.8,30.23,NNW,344,0.0,0.0,76,0.00,,---,0.00,VWS V14.01,2013-07-28 07:35:00,
2013-07-28 01:41:00,54.0,46.6,30.23,NNW,344,0.0,0.0,76,0.00,,---,0.00,VWS V14.01,2013-07-28 07:41:00,
2013-07-28 01:46:00,54.0,46.9,30.23,NNW,344,0.0,0.0,77,0.00,,---,0.00,VWS V14.01,2013-07-28 07:46:00,
2013-07-28 01:52:00,54.0,46.9,30.23,NNW,344,0.0,0.0,77,0.00,,---,0.00,VWS V14.01,2013-07-28 07:52:00,
2013-07-28 01:58:00,54.0,47.3,30.23,NNW,344,0.0,0.0,78,0.00,,---,0.00,VWS V14.01,2013-07-28 07:58:00,
2013-07-28 02:03:00,53.8,47.1,30.23,NNW,338,0.0,0.0,78,0.00,,---,0.00,VWS V14.01,2013-07-28 08:03:00,
2013-07-28 02:09:00,53.8,47.1,30.23,NNW,338,0.0,0.0,78,0.00,,---,0.00,VWS V14.01,2013-07-28 08:09:00,
2013-07-28 02:15:00,53.6,46.9,30.23,NNW,338,0.0,0.0,78,0.00,,---,0.00,VWS V14.01,2013-07-28 08:15:00,
2013-07-28 02:20:00,53.6,47.3,30.23,WSW,246,0.0,0.0,79,0.00,,---,0.00,VWS V14.01,2013-07-28 08:20:00,
2013-07-28 02:26:00,53.2,47.2,30.23,WSW,246,0.0,0.0,80,0.00,,---,0.00,VWS V14.01,2013-07-28 08:26:00,
2013-07-28 02:31:00,53.2,47.2,30.23,WSW,246,0.0,0.0,80,0.00,,---,0.00,VWS V14.01,2013-07-28 08:31:00,
2013-07-28 02:37:00,53.2,47.6,30.23,WSW,246,0.0,0.0,81,0.00,,---,0.00,VWS V14.01,2013-07-28 08:37:00,
2013-07-28 02:43:00,53.2,47.6,30.23,WSW,246,0.0,0.0,81,0.00,,---,0.00,VWS V14.01,2013-07-28 08:43:00,
2013-07-28 02:48:00,53.2,47.6,30.23,WSW,246,0.0,0.0,81,0.00,,---,0.00,VWS V14.01,2013-07-28 08:48:00,
2013-07-28 02:54:00,53.1,47.4,30.20,WSW,246,0.0,0.0,81,0.00,,---,0.00,VWS V14.01,2013-07-28 08:54:00,
2013-07-28 03:00:00,53.1,47.4,30.20,WSW,246,0.0,0.0,81,0.00,,---,0.00,VWS V14.01,2013-07-28 09:00:00,
2013-07-28 03:05:00,53.2,47.6,30.20,WSW,246,0.0,0.0,81,0.00,,---,0.00,VWS V14.01,2013-07-28 09:05:00,
2013-07-28 03:11:00,53.2,47.6,30.20,WSW,246,0.0,0.0,81,0.00,,---,0.00,VWS V14.01,2013-07-28 09:11:00,
2013-07-28 03:16:00,53.2,47.6,30.20,WSW,246,0.0,0.0,81,0.00,,---,0.00,VWS V14.01,2013-07-28 09:16:00,
2013-07-28 03:21:00,53.1,47.4,30.20,WSW,246,0.0,0.0,81,0.00,,---,0.00,VWS V14.01,2013-07-28 09:21:00,
2013-07-28 03:27:00,53.1,47.4,30.20,WSW,246,0.0,0.0,81,0.00,,---,0.00,VWS V14.01,2013-07-28 09:27:00,
2013-07-28 03:33:00,53.1,47.4,30.20,WSW,246,0.0,0.0,81,0.00,,---,0.00,VWS V14.01,2013-07-28 09:33:00,
2013-07-28 03:39:00,53.1,47.4,30.20,WSW,246,0.0,0.0,81,0.00,,---,0.00,VWS V14.01,2013-07-28 09:39:00,
2013-07-28 03:44:00,52.9,47.2,30.20,WSW,246,0.0,0.0,81,0.00,,---,0.00,VWS V14.01,2013-07-28 09:44:00,
2013-07-28 03:50:00,52.9,47.5,30.20,WSW,246,0.0,0.0,82,0.00,,---,0.00,VWS V14.01,2013-07-28 09:50:00,
2013-07-28 03:56:00,52.9,47.5,30.20,WSW,246,0.0,0.0,82,0.00,,---,0.00,VWS V14.01,2013-07-28 09:56:00,
2013-07-28 04:02:00,52.9,47.5,30.20,WSW,246,0.0,0.0,82,0.00,,---,0.00,VWS V14.01,2013-07-28 10:02:00,
2013-07-28 04:08:00,52.7,47.0,30.20,WSW,246,0.0,0.0,81,0.00,,---,0.00,VWS V14.01,2013-07-28 10:08:00,
2013-07-28 04:13:00,52.7,47.0,30.20,WSW,246,0.0,0.0,81,0.00,,---,0.00,VWS V14.01,2013-07-28 10:13:00,
2013-07-28 04:18:00,52.7,47.0,30.20,WSW,246,0.0,0.0,81,0.00,,---,0.00,VWS V14.01,2013-07-28 10:18:00,
2013-07-28 04:24:00,52.7,47.0,30.20,WSW,246,0.0,0.0,81,0.00,,---,0.00,VWS V14.01,2013-07-28 10:24:00,
2013-07-28 04:30:00,52.7,47.0,30.20,WSW,246,0.0,0.0,81,0.00,,---,0.00,VWS V14.01,2013-07-28 10:30:00,
2013-07-28 04:36:00,52.5,46.9,30.20,WSW,246,0.0,0.0,81,0.00,,---,0.00,VWS V14.01,2013-07-28 10:36:00,
2013-07-28 04:41:00,52.5,46.9,30.20,WSW,246,0.0,0.0,81,0.00,,---,0.00,VWS V14.01,2013-07-28 10:41:00,
2013-07-28 04:47:00,52.5,46.9,30.20,WSW,246,0.0,0.0,81,0.00,,---,0.00,VWS V14.01,2013-07-28 10:47:00,
2013-07-28 04:53:00,52.5,46.9,30.20,WSW,246,0.0,0.0,81,0.00,,---,0.00,VWS V14.01,2013-07-28 10:53:00,
2013-07-28 04:58:00,52.5,46.9,30.20,WSW,246,0.0,0.0,81,0.00,,---,0.00,VWS V14.01,2013-07-28 10:58:00,
2013-07-28 05:03:00,52.5,46.9,30.20,WSW,246,0.0,0.0,81,0.00,,---,0.00,VWS V14.01,2013-07-28 11:03:00,
2013-07-28 05:08:00,52.3,46.7,30.20,WSW,246,0.0,0.0,81,0.00,,---,0.00,VWS V14.01,2013-07-28 11:08:00,
2013-07-28 05:14:00,52.3,46.7,30.20,WSW,246,0.0,0.0,81,0.00,,---,0.00,VWS V14.01,2013-07-28 11:14:00,
2013-07-28 05:19:00,52.3,46.7,30.20,WSW,246,0.0,0.0,81,0.00,,---,0.00,VWS V14.01,2013-07-28 11:19:00,
2013-07-28 05:25:00,52.3,46.7,30.20,WSW,246,0.0,0.0,81,0.00,,---,0.00,VWS V14.01,2013-07-28 11:25:00,
2013-07-28 05:30:00,52.3,46.7,30.20,WSW,246,0.0,0.0,81,0.00,,---,0.00,VWS V14.01,2013-07-28 11:30:00,
2013-07-28 05:36:00,52.3,46.7,30.20,WSW,246,0.0,0.0,81,0.00,,---,0.00,VWS V14.01,2013-07-28 11:36:00,
2013-07-28 05:41:00,52.5,46.9,30.20,WSW,246,0.0,0.0,81,0.00,,---,0.00,VWS V14.01,2013-07-28 11:41:00,
2013-07-28 05:47:00,52.5,46.9,30.20,WSW,246,0.0,0.0,81,0.00,,---,0.00,VWS V14.01,2013-07-28 11:47:00,
2013-07-28 05:53:00,52.5,46.9,30.20,WSW,246,0.0,0.0,81,0.00,,---,0.00,VWS V14.01,2013-07-28 11:53:00,
2013-07-28 05:58:00,52.3,46.7,30.20,WSW,246,0.0,0.0,81,0.00,,---,0.00,VWS V14.01,2013-07-28 11:58:00,
2013-07-28 06:04:00,52.3,46.7,30.20,WSW,246,0.0,0.0,81,0.00,,---,0.00,VWS V14.01,2013-07-28 12:04:00,
2013-07-28 06:10:00,52.3,46.7,30.20,WSW,246,0.0,0.0,81,0.00,,---,0.00,VWS V14.01,2013-07-28 12:10:00,
2013-07-28 06:15:00,52.3,46.7,30.20,WSW,246,0.0,0.0,81,0.00,,---,0.00,VWS V14.01,2013-07-28 12:15:00,
2013-07-28 06:21:00,52.3,46.7,30.20,WSW,246,0.0,0.0,81,0.00,,---,0.00,VWS V14.01,2013-07-28 12:21:00,
2013-07-28 06:26:00,52.3,46.7,30.20,WSW,246,0.0,0.0,81,0.00,,---,0.00,VWS V14.01,2013-07-28 12:26:00,
2013-07-28 06:32:00,52.3,46.7,30.20,WSW,246,0.0,0.0,81,0.00,,---,0.00,VWS V14.01,2013-07-28 12:32:00,
2013-07-28 06:38:00,52.3,46.7,30.20,WSW,246,0.0,0.0,81,0.00,,---,0.00,VWS V14.01,2013-07-28 12:38:00,
2013-07-28 06:43:00,52.3,46.7,30.20,WSW,246,0.0,0.0,81,0.00,,---,0.00,VWS V14.01,2013-07-28 12:43:00,
2013-07-28 06:49:00,52.3,46.7,30.20,WSW,246,0.0,0.0,81,0.00,,---,0.00,VWS V14.01,2013-07-28 12:49:00,
2013-07-28 06:54:00,52.3,46.7,30.20,WSW,246,0.0,0.0,81,0.00,,---,0.00,VWS V14.01,2013-07-28 12:54:00,
2013-07-28 07:00:00,52.3,47.0,30.20,WSW,246,0.0,0.0,82,0.00,,---,0.00,VWS V14.01,2013-07-28 13:00:00,
2013-07-28 07:06:00,52.3,47.0,30.20,WSW,246,0.0,0.0,82,0.00,,---,0.00,VWS V14.01,2013-07-28 13:06:00,
2013-07-28 07:11:00,52.5,47.2,30.20,WSW,246,0.0,0.0,82,0.00,,---,0.00,VWS V14.01,2013-07-28 13:11:00,
2013-07-28 07:16:00,52.5,47.2,30.20,WSW,246,0.0,0.0,82,0.00,,---,0.00,VWS V14.01,2013-07-28 13:16:00,
2013-07-28 07:21:00,52.5,47.2,30.20,WSW,246,0.0,0.0,82,0.00,,---,0.00,VWS V14.01,2013-07-28 13:21:00,
2013-07-28 07:27:00,52.5,47.2,30.20,WSW,246,0.0,0.0,82,0.00,,---,0.00,VWS V14.01,2013-07-28 13:27:00,
2013-07-28 07:32:00,52.5,47.2,30.20,WSW,246,0.0,0.0,82,0.00,,---,0.00,VWS V14.01,2013-07-28 13:32:00,
2013-07-28 07:38:00,52.5,47.5,30.20,WSW,246,0.0,0.0,83,0.00,,---,0.00,VWS V14.01,2013-07-28 13:38:00,
2013-07-28 07:44:00,52.7,47.7,30.20,WSW,246,0.0,0.0,83,0.00,,---,0.00,VWS V14.01,2013-07-28 13:44:00,
2013-07-28 07:49:00,52.7,47.7,30.20,WSW,246,0.0,0.0,83,0.00,,---,0.00,VWS V14.01,2013-07-28 13:49:00,
2013-07-28 07:54:00,52.7,47.7,30.20,SW,216,0.0,0.0,83,0.00,,---,0.00,VWS V14.01,2013-07-28 13:54:00,
2013-07-28 07:59:00,52.7,47.7,30.20,South,177,6.3,6.3,83,0.00,,---,0.00,VWS V14.01,2013-07-28 13:59:00,
2013-07-28 08:05:00,52.9,48.2,30.20,WSW,243,3.6,5.8,84,0.00,,---,0.00,VWS V14.01,2013-07-28 14:05:00,
2013-07-28 08:11:00,53.1,48.7,30.20,WSW,247,5.8,8.1,85,0.00,,---,0.00,VWS V14.01,2013-07-28 14:11:00,
2013-07-28 08:17:00,53.1,48.7,30.20,SW,233,4.0,5.4,85,0.00,,---,0.00,VWS V14.01,2013-07-28 14:17:00,
2013-07-28 08:23:00,53.1,48.7,30.20,WSW,246,0.0,0.0,85,0.00,,---,0.00,VWS V14.01,2013-07-28 14:23:00,
2013-07-28 08:28:00,53.2,48.8,30.20,SW,231,0.0,0.0,85,0.00,,---,0.00,VWS V14.01,2013-07-28 14:28:00,
2013-07-28 08:34:00,53.2,48.8,30.20,SW,231,0.0,0.0,85,0.00,,---,0.00,VWS V14.01,2013-07-28 14:34:00,
2013-07-28 08:39:00,53.4,49.0,30.20,SW,231,0.0,0.0,85,0.00,,---,0.00,VWS V14.01,2013-07-28 14:39:00,
2013-07-28 08:45:00,53.6,49.2,30.20,SW,231,0.0,0.0,85,0.00,,---,0.00,VWS V14.01,2013-07-28 14:45:00,
2013-07-28 08:51:00,53.8,49.4,30.20,SSE,158,0.0,4.0,85,0.00,,---,0.00,VWS V14.01,2013-07-28 14:51:00,
2013-07-28 08:57:00,54.0,49.6,30.20,South,191,3.1,3.6,85,0.00,,---,0.00,VWS V14.01,2013-07-28 14:57:00,
2013-07-28 09:02:00,54.1,49.4,30.20,SSW,200,3.6,4.9,84,0.00,,---,0.00,VWS V14.01,2013-07-28 15:02:00,
2013-07-28 09:08:00,54.3,49.6,30.20,SSW,193,0.0,3.6,84,0.00,,---,0.00,VWS V14.01,2013-07-28 15:08:00,
2013-07-28 09:13:00,54.5,49.8,30.20,SSW,192,0.0,0.0,84,0.00,,---,0.00,VWS V14.01,2013-07-28 15:13:00,
2013-07-28 09:19:00,54.5,49.8,30.20,SSW,197,0.0,0.0,84,0.00,,---,0.00,VWS V14.01,2013-07-28 15:19:00,
2013-07-28 09:24:00,54.7,50.0,30.20,SSW,203,0.0,0.0,84,0.00,,---,0.00,VWS V14.01,2013-07-28 15:24:00,
2013-07-28 09:29:00,55.0,50.3,30.20,South,186,3.1,5.4,84,0.00,,---,0.00,VWS V14.01,2013-07-28 15:29:00,
2013-07-28 09:34:00,55.0,50.3,30.20,SSW,210,3.1,4.0,84,0.00,,---,0.00,VWS V14.01,2013-07-28 15:34:00,
2013-07-28 09:40:00,55.4,50.3,30.20,SW,236,3.6,5.4,83,0.00,,---,0.00,VWS V14.01,2013-07-28 15:40:00,
2013-07-28 09:45:00,55.6,50.5,30.20,WSW,237,4.0,4.0,83,0.00,,---,0.00,VWS V14.01,2013-07-28 15:45:00,
2013-07-28 09:51:00,55.8,50.7,30.20,WSW,242,0.0,2.7,83,0.00,,---,0.00,VWS V14.01,2013-07-28 15:51:00,
2013-07-28 09:57:00,55.9,50.9,30.20,WSW,242,0.0,0.0,83,0.00,,---,0.00,VWS V14.01,2013-07-28 15:57:00,
2013-07-28 10:02:00,56.1,51.0,30.20,WSW,242,0.0,0.0,83,0.00,,---,0.00,VWS V14.01,2013-07-28 16:02:00,
2013-07-28 10:07:00,56.1,51.0,30.20,NNW,340,0.0,0.0,83,0.00,,---,0.00,VWS V14.01,2013-07-28 16:07:00,
2013-07-28 10:12:00,56.3,51.5,30.17,NNW,334,0.0,0.0,84,0.00,,---,0.00,VWS V14.01,2013-07-28 16:12:00,
2013-07-28 10:18:00,56.3,51.5,30.17,North,353,0.0,0.0,84,0.00,,---,0.00,VWS V14.01,2013-07-28 16:18:00,
2013-07-28 10:23:00,56.3,51.2,30.20,NNW,340,0.0,0.0,83,0.00,,---,0.00,VWS V14.01,2013-07-28 16:23:00,
2013-07-28 10:29:00,56.5,51.4,30.20,North,5,0.0,0.0,83,0.00,,---,0.00,VWS V14.01,2013-07-28 16:29:00,
2013-07-28 10:34:00,56.5,51.4,30.20,North,0,0.0,0.0,83,0.00,,---,0.00,VWS V14.01,2013-07-28 16:34:00,
2013-07-28 10:40:00,56.7,51.6,30.17,North,0,0.0,0.0,83,0.00,,---,0.00,VWS V14.01,2013-07-28 16:40:00,
2013-07-28 10:45:00,56.7,51.6,30.17,NNW,334,0.0,0.0,83,0.00,,---,0.00,VWS V14.01,2013-07-28 16:45:00,
2013-07-28 10:51:00,56.8,51.4,30.17,NNW,334,0.0,0.0,82,0.00,,---,0.00,VWS V14.01,2013-07-28 16:51:00,
2013-07-28 10:57:00,56.8,51.1,30.20,NNW,334,0.0,0.0,81,0.00,,---,0.00,VWS V14.01,2013-07-28 16:57:00,
2013-07-28 11:03:00,56.8,50.7,30.20,NNW,334,0.0,0.0,80,0.00,,---,0.00,VWS V14.01,2013-07-28 17:03:00,
2013-07-28 11:09:00,57.0,50.9,30.20,NNW,334,0.0,0.0,80,0.00,,---,0.00,VWS V14.01,2013-07-28 17:09:00,
2013-07-28 11:14:00,57.2,50.8,30.20,NNW,334,0.0,0.0,79,0.00,,---,0.00,VWS V14.01,2013-07-28 17:14:00,
2013-07-28 11:20:00,57.4,51.3,30.20,WSW,247,0.0,0.0,80,0.00,,---,0.00,VWS V14.01,2013-07-28 17:20:00,
2013-07-28 11:25:00,57.6,51.1,30.20,WSW,247,0.0,0.0,79,0.00,,---,0.00,VWS V14.01,2013-07-28 17:25:00,
2013-07-28 11:30:00,57.7,51.3,30.20,WSW,247,0.0,0.0,79,0.00,,---,0.00,VWS V14.01,2013-07-28 17:30:00,
2013-07-28 11:35:00,57.9,51.5,30.20,NNW,334,0.0,0.0,79,0.00,,---,0.00,VWS V14.01,2013-07-28 17:35:00,
2013-07-28 11:41:00,58.1,51.6,30.20,NNW,342,0.0,0.0,79,0.00,,---,0.00,VWS V14.01,2013-07-28 17:41:00,
2013-07-28 11:46:00,58.3,51.8,30.20,ENE,58,0.0,3.1,79,0.00,,---,0.00,VWS V14.01,2013-07-28 17:46:00,
2013-07-28 11:51:00,58.5,52.0,30.20,NE,55,0.0,0.0,79,0.00,,---,0.00,VWS V14.01,2013-07-28 17:51:00,
2013-07-28 11:56:00,58.5,51.3,30.20,North,0,0.0,0.0,77,0.00,,---,0.00,VWS V14.01,2013-07-28 17:56:00,
2013-07-28 11:59:00,58.3,50.4,30.20,NNW,338,0.0,0.0,75,0.00,,---,0.00,VWS V14.01,2013-07-28 17:59:00,
2013-07-28 12:05:00,58.5,50.2,30.20,NNW,338,0.0,0.0,74,0.00,,---,0.00,VWS V14.01,2013-07-28 18:05:00,
2013-07-28 12:11:00,58.5,50.2,30.20,NNW,338,0.0,0.0,74,0.00,,---,0.00,VWS V14.01,2013-07-28 18:11:00,
2013-07-28 12:17:00,58.6,49.7,30.20,NNW,334,0.0,0.0,72,0.00,,---,0.00,VWS V14.01,2013-07-28 18:17:00,
2013-07-28 12:23:00,58.8,49.5,30.20,NNW,334,0.0,0.0,71,0.00,,---,0.00,VWS V14.01,2013-07-28 18:23:00,
2013-07-28 12:28:00,59.0,49.2,30.20,NNW,334,0.0,0.0,70,0.00,,---,0.00,VWS V14.01,2013-07-28 18:28:00,
2013-07-28 12:34:00,59.2,48.6,30.20,WNW,303,2.7,7.2,68,0.00,,---,0.00,VWS V14.01,2013-07-28 18:34:00,
2013-07-28 12:40:00,59.4,49.2,30.20,NW,311,0.0,0.0,69,0.00,,---,0.00,VWS V14.01,2013-07-28 18:40:00,
2013-07-28 12:45:00,59.7,49.5,30.20,NW,311,0.0,0.0,69,0.00,,---,0.00,VWS V14.01,2013-07-28 18:45:00,
2013-07-28 12:51:00,59.7,49.2,30.20,West,260,0.0,0.0,68,0.00,,---,0.00,VWS V14.01,2013-07-28 18:51:00,
2013-07-28 12:56:00,60.1,49.1,30.20,WNW,296,0.0,0.0,67,0.00,,---,0.00,VWS V14.01,2013-07-28 18:56:00,
2013-07-28 13:02:00,60.3,49.3,30.20,NNE,28,0.0,5.8,67,0.00,,---,0.00,VWS V14.01,2013-07-28 19:02:00,
2013-07-28 13:07:00,60.6,50.4,30.20,NE,51,0.0,0.0,69,0.00,,---,0.00,VWS V14.01,2013-07-28 19:07:00,
2013-07-28 13:13:00,60.8,48.6,30.20,NNW,339,4.0,4.0,64,0.00,,---,0.00,VWS V14.01,2013-07-28 19:13:00,
2013-07-28 13:19:00,61.2,48.5,30.20,NNW,341,2.7,4.0,63,0.00,,---,0.00,VWS V14.01,2013-07-28 19:19:00,
2013-07-28 13:24:00,61.7,48.6,30.20,NNW,331,3.1,5.4,62,0.00,,---,0.00,VWS V14.01,2013-07-28 19:24:00,
2013-07-28 13:29:00,62.2,48.2,30.20,NNW,335,6.3,8.7,60,0.00,,---,0.00,VWS V14.01,2013-07-28 19:29:00,
2013-07-28 13:34:00,62.2,47.3,30.20,North,0,2.7,5.8,58,0.00,,---,0.00,VWS V14.01,2013-07-28 19:34:00,
2013-07-28 13:40:00,62.2,47.3,30.20,NNW,346,3.6,6.3,58,0.00,,---,0.00,VWS V14.01,2013-07-28 19:40:00,
2013-07-28 13:45:00,62.2,47.8,30.20,NNW,344,3.6,6.3,59,0.00,,---,0.00,VWS V14.01,2013-07-28 19:45:00,
2013-07-28 13:51:00,61.3,46.5,30.20,NE,54,4.5,4.5,58,0.00,,---,0.00,VWS V14.01,2013-07-28 19:51:00,
2013-07-28 13:57:00,60.1,43.9,30.23,ENE,66,0.0,8.3,55,0.00,,---,0.00,VWS V14.01,2013-07-28 19:57:00,
2013-07-28 14:02:00,59.2,43.0,30.23,WSW,247,0.0,8.3,55,0.00,,---,0.00,VWS V14.01,2013-07-28 20:02:00,
2013-07-28 14:08:00,58.8,45.8,30.23,SW,234,0.0,0.0,62,0.00,,---,0.00,VWS V14.01,2013-07-28 20:08:00,
2013-07-28 14:13:00,58.6,45.2,30.23,NW,313,0.0,0.0,61,0.00,,---,0.00,VWS V14.01,2013-07-28 20:13:00,
2013-07-28 14:18:00,58.5,42.8,30.23,East,90,2.2,5.4,56,0.00,,---,0.00,VWS V14.01,2013-07-28 20:18:00,
2013-07-28 14:23:00,57.9,38.9,30.23,ESE,106,0.0,0.0,49,0.00,,---,0.00,VWS V14.01,2013-07-28 20:23:00,
2013-07-28 14:29:00,57.6,39.6,30.23,East,88,0.0,0.0,51,0.00,,---,0.00,VWS V14.01,2013-07-28 20:29:00,
2013-07-28 14:34:00,57.2,40.2,30.23,East,88,0.0,2.7,53,0.00,,---,0.00,VWS V14.01,2013-07-28 20:34:00,
2013-07-28 14:40:00,57.2,41.2,30.20,NE,53,0.0,0.0,55,0.00,,---,0.00,VWS V14.01,2013-07-28 20:40:00,
2013-07-28 14:46:00,57.0,41.0,30.20,NE,48,0.0,0.0,55,0.00,,---,0.00,VWS V14.01,2013-07-28 20:46:00,
2013-07-28 14:51:00,56.8,38.4,30.20,East,99,0.0,0.0,50,0.00,,---,0.00,VWS V14.01,2013-07-28 20:51:00,
2013-07-28 14:56:00,56.7,38.2,30.23,SE,131,0.0,0.0,50,0.00,,---,0.00,VWS V14.01,2013-07-28 20:56:00,
2013-07-28 15:01:00,56.7,38.2,30.23,SSW,203,3.1,4.0,50,0.00,,---,0.00,VWS V14.01,2013-07-28 21:01:00,
2013-07-28 15:06:00,57.0,40.1,30.23,SSW,209,0.0,0.0,53,0.00,,---,0.00,VWS V14.01,2013-07-28 21:06:00,
2013-07-28 15:12:00,57.4,40.4,30.23,SSE,152,0.0,0.0,53,0.00,,---,0.00,VWS V14.01,2013-07-28 21:12:00,
2013-07-28 15:18:00,57.6,38.0,30.23,East,86,0.0,0.0,48,0.00,,---,0.00,VWS V14.01,2013-07-28 21:18:00,
2013-07-28 15:23:00,57.6,37.5,30.23,East,90,0.0,3.6,47,0.00,,---,0.00,VWS V14.01,2013-07-28 21:23:00,
2013-07-28 15:28:00,57.6,37.0,30.23,SSW,195,0.0,2.7,46,0.00,,---,0.00,VWS V14.01,2013-07-28 21:28:00,
2013-07-28 15:33:00,57.6,37.5,30.23,East,90,2.7,2.7,47,0.00,,---,0.00,VWS V14.01,2013-07-28 21:33:00,
2013-07-28 15:39:00,57.7,37.7,30.20,ENE,76,0.0,3.1,47,0.00,,---,0.00,VWS V14.01,2013-07-28 21:39:00,
2013-07-28 15:44:00,57.9,37.8,30.20,SSW,205,0.0,0.0,47,0.00,,---,0.00,VWS V14.01,2013-07-28 21:44:00,
2013-07-28 15:50:00,57.9,38.4,30.20,SSW,199,0.0,0.0,48,0.00,,---,0.00,VWS V14.01,2013-07-28 21:50:00,
2013-07-28 15:56:00,57.9,38.4,30.20,West,280,0.0,5.8,48,0.00,,---,0.00,VWS V14.01,2013-07-28 21:56:00,
2013-07-28 16:01:00,57.9,38.9,30.20,South,183,6.3,6.3,49,0.00,,---,0.00,VWS V14.01,2013-07-28 22:01:00,
2013-07-28 16:07:00,57.9,37.8,30.23,NE,50,0.0,3.1,47,0.00,,---,0.00,VWS V14.01,2013-07-28 22:07:00,
2013-07-28 16:12:00,57.9,39.4,30.23,NW,306,3.1,4.9,50,0.00,,---,0.00,VWS V14.01,2013-07-28 22:12:00,
2013-07-28 16:18:00,57.7,37.7,30.23,East,100,0.0,3.1,47,0.00,,---,0.00,VWS V14.01,2013-07-28 22:18:00,
2013-07-28 16:24:00,57.9,40.9,30.20,ENE,59,0.0,0.0,53,0.00,,---,0.00,VWS V14.01,2013-07-28 22:24:00,
2013-07-28 16:29:00,58.3,40.2,30.20,NNW,342,0.0,0.0,51,0.00,,---,0.00,VWS V14.01,2013-07-28 22:29:00,
2013-07-28 16:34:00,58.5,39.4,30.20,ENE,65,0.0,3.1,49,0.00,,---,0.00,VWS V14.01,2013-07-28 22:34:00,
2013-07-28 16:39:00,58.5,38.9,30.20,WSW,258,0.0,0.0,48,0.00,,---,0.00,VWS V14.01,2013-07-28 22:39:00,
2013-07-28 16:45:00,58.5,38.3,30.20,WSW,258,0.0,0.0,47,0.00,,---,0.00,VWS V14.01,2013-07-28 22:45:00,
2013-07-28 16:50:00,58.3,37.6,30.20,WSW,258,0.0,0.0,46,0.00,,---,0.00,VWS V14.01,2013-07-28 22:50:00,
2013-07-28 16:55:00,58.3,37.6,30.20,WSW,258,0.0,0.0,46,0.00,,---,0.00,VWS V14.01,2013-07-28 22:55:00,
2013-07-28 17:00:00,58.5,37.8,30.20,WSW,258,0.0,0.0,46,0.00,,---,0.00,VWS V14.01,2013-07-28 23:00:00,
2013-07-28 17:06:00,58.6,38.5,30.20,South,187,0.0,5.8,47,0.00,,---,0.00,VWS V14.01,2013-07-28 23:06:00,
2013-07-28 17:11:00,58.6,37.4,30.20,SW,229,4.0,4.9,45,0.00,,---,0.00,VWS V14.01,2013-07-28 23:11:00,
2013-07-28 17:17:00,58.8,38.1,30.20,SW,232,3.6,5.8,46,0.00,,---,0.00,VWS V14.01,2013-07-28 23:17:00,
2013-07-28 17:22:00,58.8,38.7,30.20,SSW,206,5.4,5.4,47,0.00,,---,0.00,VWS V14.01,2013-07-28 23:22:00,
2013-07-28 17:27:00,58.8,37.5,30.20,SW,226,5.4,6.3,45,0.00,,---,0.00,VWS V14.01,2013-07-28 23:27:00,
2013-07-28 17:32:00,59.0,38.3,30.20,SW,235,0.0,7.6,46,0.00,,---,0.00,VWS V14.01,2013-07-28 23:32:00,
2013-07-28 17:38:00,59.0,38.3,30.20,SSW,208,2.7,5.8,46,0.00,,---,0.00,VWS V14.01,2013-07-28 23:38:00,
2013-07-28 17:43:00,59.0,37.1,30.20,East,97,0.0,6.3,44,0.00,,---,0.00,VWS V14.01,2013-07-28 23:43:00,
2013-07-28 17:48:00,58.8,37.5,30.20,South,184,8.7,8.7,45,0.00,,---,0.00,VWS V14.01,2013-07-28 23:48:00,
2013-07-28 17:54:00,58.8,37.5,30.20,SSW,206,6.3,6.3,45,0.00,,---,0.00,VWS V14.01,2013-07-28 23:54:00,
2013-07-28 17:59:00,58.8,37.5,30.20,SW,217,3.1,5.4,45,0.00,,---,0.00,VWS V14.01,2013-07-28 23:59:00,
2013-07-28 18:05:00,58.6,37.9,30.20,South,179,3.6,4.0,46,0.00,,---,0.00,VWS V14.01,2013-07-29 00:05:00,
2013-07-28 18:11:00,58.6,37.4,30.20,ESE,120,3.1,6.3,45,0.00,,---,0.00,VWS V14.01,2013-07-29 00:11:00,
2013-07-28 18:17:00,58.8,37.0,30.20,East,101,0.0,0.0,44,0.00,,---,0.00,VWS V14.01,2013-07-29 00:17:00,
2013-07-28 18:22:00,58.6,36.8,30.17,NE,46,0.0,0.0,44,0.00,,---,0.00,VWS V14.01,2013-07-29 00:22:00,
2013-07-28 18:28:00,58.8,37.5,30.17,West,278,0.0,0.0,45,0.00,,---,0.00,VWS V14.01,2013-07-29 00:28:00,
2013-07-28 18:34:00,59.0,38.3,30.17,SSW,213,0.0,0.0,46,0.00,,---,0.00,VWS V14.01,2013-07-29 00:34:00,
2013-07-28 18:39:00,59.2,39.0,30.17,SW,235,0.0,0.0,47,0.00,,---,0.00,VWS V14.01,2013-07-29 00:39:00,
2013-07-28 18:45:00,59.7,38.9,30.17,West,259,5.8,6.3,46,0.00,,---,0.00,VWS V14.01,2013-07-29 00:45:00,
2013-07-28 18:50:00,60.4,36.0,30.17,SW,232,3.1,5.4,40,0.00,,---,0.00,VWS V14.01,2013-07-29 00:50:00,
2013-07-28 18:56:00,60.6,36.8,30.17,West,261,4.0,4.9,41,0.00,,---,0.00,VWS V14.01,2013-07-29 00:56:00,
2013-07-28 19:01:00,60.6,37.4,30.17,WSW,257,0.0,2.7,42,0.00,,---,0.00,VWS V14.01,2013-07-29 01:01:00,
2013-07-28 19:07:00,60.4,38.4,30.20,WSW,257,0.0,0.0,44,0.00,,---,0.00,VWS V14.01,2013-07-29 01:07:00,
2013-07-28 19:13:00,60.1,38.1,30.20,WSW,257,0.0,0.0,44,0.00,,---,0.00,VWS V14.01,2013-07-29 01:13:00,
2013-07-28 19:19:00,59.9,38.5,30.20,WSW,257,0.0,0.0,45,0.00,,---,0.00,VWS V14.01,2013-07-29 01:19:00,
2013-07-28 19:25:00,59.7,38.9,30.20,WSW,257,0.0,0.0,46,0.00,,---,0.00,VWS V14.01,2013-07-29 01:25:00,
2013-07-28 19:30:00,59.7,39.5,30.20,WSW,257,0.0,0.0,47,0.00,,---,0.00,VWS V14.01,2013-07-29 01:30:00,
2013-07-28 19:36:00,59.5,39.3,30.20,WSW,257,0.0,0.0,47,0.00,,---,0.00,VWS V14.01,2013-07-29 01:36:00,
2013-07-28 19:42:00,59.4,39.7,30.20,WSW,257,0.0,0.0,48,0.00,,---,0.00,VWS V14.01,2013-07-29 01:42:00,
2013-07-28 19:47:00,59.2,40.0,30.20,WSW,257,0.0,0.0,49,0.00,,---,0.00,VWS V14.01,2013-07-29 01:47:00,
2013-07-28 19:53:00,59.0,39.9,30.20,WSW,257,0.0,0.0,49,0.00,,---,0.00,VWS V14.01,2013-07-29 01:53:00,
2013-07-28 19:59:00,58.8,40.2,30.20,WSW,257,0.0,0.0,50,0.00,,---,0.00,VWS V14.01,2013-07-29 01:59:00,
2013-07-28 20:05:00,58.6,40.6,30.20,WSW,257,0.0,0.0,51,0.00,,---,0.00,VWS V14.01,2013-07-29 02:05:00,
2013-07-28 20:10:00,58.5,40.4,30.20,WSW,257,0.0,0.0,51,0.00,,---,0.00,VWS V14.01,2013-07-29 02:10:00,
2013-07-28 20:17:00,58.3,39.7,30.20,WSW,257,0.0,0.0,50,0.00,,---,0.00,VWS V14.01,2013-07-29 02:17:00,
2013-07-28 20:24:00,57.9,39.4,30.20,WSW,257,0.0,0.0,50,0.00,,---,0.00,VWS V14.01,2013-07-29 02:24:00,
2013-07-28 20:30:00,57.7,39.2,30.20,WSW,257,0.0,0.0,50,0.00,,---,0.00,VWS V14.01,2013-07-29 02:30:00,
2013-07-28 20:35:00,57.4,38.4,30.20,WSW,257,0.0,0.0,49,0.00,,---,0.00,VWS V14.01,2013-07-29 02:35:00,
2013-07-28 20:41:00,57.2,38.8,30.20,WSW,257,0.0,0.0,50,0.00,,---,0.00,VWS V14.01,2013-07-29 02:41:00,
2013-07-28 20:46:00,57.0,39.1,30.20,WSW,257,0.0,0.0,51,0.00,,---,0.00,VWS V14.01,2013-07-29 02:46:00,
2013-07-28 20:52:00,56.8,38.9,30.20,WSW,257,0.0,0.0,51,0.00,,---,0.00,VWS V14.01,2013-07-29 02:52:00,
2013-07-28 20:57:00,56.8,39.4,30.20,WSW,257,0.0,0.0,52,0.00,,---,0.00,VWS V14.01,2013-07-29 02:57:00,
2013-07-28 21:03:00,56.7,39.2,30.20,WSW,257,0.0,0.0,52,0.00,,---,0.00,VWS V14.01,2013-07-29 03:03:00,
2013-07-28 21:09:00,56.1,39.2,30.20,WSW,257,0.0,0.0,53,0.00,,---,0.00,VWS V14.01,2013-07-29 03:09:00,
2013-07-28 21:14:00,55.9,39.1,30.20,WSW,257,0.0,0.0,53,0.00,,---,0.00,VWS V14.01,2013-07-29 03:14:00,
2013-07-28 21:20:00,55.9,39.5,30.20,WSW,257,0.0,0.0,54,0.00,,---,0.00,VWS V14.01,2013-07-29 03:20:00,
2013-07-28 21:25:00,55.8,39.4,30.20,WSW,257,0.0,0.0,54,0.00,,---,0.00,VWS V14.01,2013-07-29 03:25:00,
2013-07-28 21:31:00,55.8,39.8,30.20,SSW,209,0.0,0.0,55,0.00,,---,0.00,VWS V14.01,2013-07-29 03:31:00,
2013-07-28 21:37:00,55.6,39.7,30.23,WSW,244,0.0,0.0,55,0.00,,---,0.00,VWS V14.01,2013-07-29 03:37:00,
2013-07-28 21:43:00,55.2,39.3,30.23,SSW,211,4.0,4.9,55,0.00,,---,0.00,VWS V14.01,2013-07-29 03:43:00,
2013-07-28 21:48:00,55.0,39.7,30.23,SSW,210,0.0,4.9,56,0.00,,---,0.00,VWS V14.01,2013-07-29 03:48:00,
2013-07-28 21:54:00,54.9,39.9,30.23,SSW,200,3.1,5.4,57,0.00,,---,0.00,VWS V14.01,2013-07-29 03:54:00,
2013-07-28 22:00:00,54.7,39.8,30.23,WSW,237,0.0,3.6,57,0.00,,---,0.00,VWS V14.01,2013-07-29 04:00:00,
2013-07-28 22:01:00,54.7,39.8,30.23,WSW,238,0.0,0.0,57,0.00,,---,0.00,VWS V14.01,2013-07-29 04:01:00,
2013-07-28 22:02:00,54.7,39.8,30.23,WSW,238,0.0,0.0,57,0.00,,---,0.00,VWS V14.01,2013-07-29 04:02:00,
2013-07-28 22:03:00,54.7,39.8,30.23,WSW,238,0.0,0.0,57,0.00,,---,0.00,VWS V14.01,2013-07-29 04:03:00,
2013-07-28 22:04:00,54.7,39.8,30.23,WSW,238,0.0,0.0,57,0.00,,---,0.00,VWS V14.01,2013-07-29 04:04:00,
2013-07-28 22:09:00,54.7,39.8,30.23,WSW,238,0.0,0.0,57,0.00,,---,0.00,VWS V14.01,2013-07-29 04:09:00,
2013-07-28 22:14:00,54.7,39.8,30.23,WSW,238,0.0,0.0,57,0.00,,---,0.00,VWS V14.01,2013-07-29 04:14:00,
2013-07-28 22:20:00,54.7,39.8,30.23,WSW,238,0.0,0.0,57,0.00,,---,0.00,VWS V14.01,2013-07-29 04:20:00,
2013-07-28 22:27:00,54.5,39.6,30.23,WSW,238,0.0,0.0,57,0.00,,---,0.00,VWS V14.01,2013-07-29 04:27:00,
2013-07-28 22:33:00,54.5,39.6,30.23,WSW,238,0.0,0.0,57,0.00,,---,0.00,VWS V14.01,2013-07-29 04:33:00,
2013-07-28 22:34:00,54.5,39.6,30.23,WSW,238,0.0,0.0,57,0.00,,---,0.00,VWS V14.01,2013-07-29 04:34:00,
2013-07-28 22:40:00,54.5,39.6,30.23,WSW,238,0.0,0.0,57,0.00,,---,0.00,VWS V14.01,2013-07-29 04:40:00,
2013-07-28 22:45:00,54.5,39.6,30.23,WSW,238,0.0,0.0,57,0.00,,---,0.00,VWS V14.01,2013-07-29 04:45:00,
2013-07-28 22:50:00,54.5,40.9,30.23,WSW,238,0.0,0.0,60,0.00,,---,0.00,VWS V14.01,2013-07-29 04:50:00,
2013-07-28 22:56:00,54.3,40.8,30.23,WSW,238,0.0,0.0,60,0.00,,---,0.00,VWS V14.01,2013-07-29 04:56:00,
2013-07-28 23:01:00,54.3,40.3,30.23,WSW,238,0.0,0.0,59,0.00,,---,0.00,VWS V14.01,2013-07-29 05:01:00,
2013-07-28 23:07:00,54.1,40.1,30.23,WSW,238,0.0,0.0,59,0.00,,---,0.00,VWS V14.01,2013-07-29 05:07:00,
2013-07-28 23:12:00,54.3,40.3,30.23,WSW,238,0.0,0.0,59,0.00,,---,0.00,VWS V14.01,2013-07-29 05:12:00,
2013-07-28 23:18:00,54.1,40.1,30.23,WSW,238,0.0,0.0,59,0.00,,---,0.00,VWS V14.01,2013-07-29 05:18:00,
2013-07-28 23:23:00,54.1,40.1,30.23,WSW,238,0.0,0.0,59,0.00,,---,0.00,VWS V14.01,2013-07-29 05:23:00,
2013-07-28 23:29:00,54.1,40.6,30.23,WSW,238,0.0,0.0,60,0.00,,---,0.00,VWS V14.01,2013-07-29 05:29:00,
2013-07-28 23:34:00,54.0,40.4,30.23,WSW,238,0.0,0.0,60,0.00,,---,0.00,VWS V14.01,2013-07-29 05:34:00,
2013-07-28 23:39:00,54.0,40.4,30.23,WSW,238,0.0,0.0,60,0.00,,---,0.00,VWS V14.01,2013-07-29 05:39:00,
2013-07-28 23:45:00,54.0,40.4,30.23,WSW,238,0.0,0.0,60,0.00,,---,0.00,VWS V14.01,2013-07-29 05:45:00,
2013-07-28 23:51:00,53.8,40.7,30.23,WSW,238,0.0,0.0,61,0.00,,---,0.00,VWS V14.01,2013-07-29 05:51:00,
2013-07-28 23:56:00,53.8,40.7,30.20,WSW,238,0.0,0.0,61,0.00,,---,0.00,VWS V14.01,2013-07-29 05:56:00,